Time,TemperatureF,DewpointF,PressureIn,WindDirection,WindDirectionDegrees,WindSpeedMPH,WindSpeedGustMPH,Humidity,HourlyPrecipIn,Conditions,Clouds,dailyrainin,SoftwareType,DateUTC
2013-02-22 00:04:00,27.5,17.8,-100.00,North,-999,-999.0,-999.0,63,-99.99,,,-99.99,WSDL version 420,2013-02-22 07:04:00,
2013-02-22 00:09:00,27.5,17.8,-100.00,North,-999,-999.0,-999.0,63,-99.99,,,-99.99,WSDL version 420,2013-02-22 07:09:00,
2013-02-22 00:14:00,27.6,17.8,-100.00,North,-999,-999.0,-999.0,63,-99.99,,,-99.99,WSDL version 420,2013-02-22 07:14:00,
2013-02-22 00:19:00,27.7,18.0,-100.00,North,-999,-999.0,-999.0,63,-99.99,,,-99.99,WSDL version 420,2013-02-22 07:19:00,
2013-02-22 00:24:00,27.7,18.0,-100.00,North,-999,-999.0,-999.0,63,-99.99,,,-99.99,WSDL version 420,2013-02-22 07:24:00,
2013-02-22 00:29:00,27.7,18.0,-100.00,North,-999,-999.0,-999.0,63,-99.99,,,-99.99,WSDL version 420,2013-02-22 07:29:00,
2013-02-22 00:34:00,27.9,18.1,-100.00,North,-999,-999.0,-999.0,63,-99.99,,,-99.99,WSDL version 420,2013-02-22 07:34:00,
2013-02-22 00:39:00,27.9,18.0,-100.00,North,-999,-999.0,-999.0,62,-99.99,,,-99.99,WSDL version 420,2013-02-22 07:39:00,
2013-02-22 00:44:00,27.9,17.8,-100.00,North,-999,-999.0,-999.0,62,-99.99,,,-99.99,WSDL version 420,2013-02-22 07:44:00,
2013-02-22 00:49:00,27.9,17.8,-100.00,North,-999,-999.0,-999.0,62,-99.99,,,-99.99,WSDL version 420,2013-02-22 07:49:00,
2013-02-22 00:54:00,27.9,17.8,-100.00,North,-999,-999.0,-999.0,62,-99.99,,,-99.99,WSDL version 420,2013-02-22 07:54:00,
2013-02-22 00:59:00,27.9,17.8,-100.00,North,-999,-999.0,-999.0,62,-99.99,,,-99.99,WSDL version 420,2013-02-22 07:59:00,
2013-02-22 01:13:00,27.9,17.8,-100.00,North,-999,-999.0,-999.0,62,-99.99,,,-99.99,WSDL version 420,2013-02-22 08:13:00,
2013-02-22 01:18:00,27.9,17.8,-100.00,North,-999,-999.0,-999.0,62,-99.99,,,-99.99,WSDL version 420,2013-02-22 08:18:00,
2013-02-22 01:23:00,28.0,18.0,-100.00,North,-999,-999.0,-999.0,62,-99.99,,,-99.99,WSDL version 420,2013-02-22 08:23:00,
2013-02-22 01:28:00,28.0,18.0,-100.00,North,-999,-999.0,-999.0,62,-99.99,,,-99.99,WSDL version 420,2013-02-22 08:28:00,
2013-02-22 01:33:00,28.0,18.0,-100.00,North,-999,-999.0,-999.0,62,-99.99,,,-99.99,WSDL version 420,2013-02-22 08:33:00,
2013-02-22 01:38:00,28.0,17.9,-100.00,North,-999,-999.0,-999.0,62,-99.99,,,-99.99,WSDL version 420,2013-02-22 08:38:00,
2013-02-22 01:43:00,28.0,17.9,-100.00,North,-999,-999.0,-999.0,62,-99.99,,,-99.99,WSDL version 420,2013-02-22 08:43:00,
2013-02-22 01:48:00,28.0,17.9,-100.00,North,-999,-999.0,-999.0,62,-99.99,,,-99.99,WSDL version 420,2013-02-22 08:48:00,
2013-02-22 01:53:00,27.9,17.8,-100.00,North,-999,-999.0,-999.0,62,-99.99,,,-99.99,WSDL version 420,2013-02-22 08:53:00,
2013-02-22 01:58:00,27.9,17.8,-100.00,North,-999,-999.0,-999.0,62,-99.99,,,-99.99,WSDL version 420,2013-02-22 08:58:00,
2013-02-22 02:13:00,27.9,17.8,-100.00,North,-999,-999.0,-999.0,62,-99.99,,,-99.99,WSDL version 420,2013-02-22 09:13:00,
2013-02-22 02:18:00,27.9,17.8,-100.00,North,-999,-999.0,-999.0,62,-99.99,,,-99.99,WSDL version 420,2013-02-22 09:18:00,
2013-02-22 02:23:00,27.9,17.8,-100.00,North,-999,-999.0,-999.0,62,-99.99,,,-99.99,WSDL version 420,2013-02-22 09:23:00,
2013-02-22 02:28:00,27.9,17.8,-100.00,North,-999,-999.0,-999.0,62,-99.99,,,-99.99,WSDL version 420,2013-02-22 09:28:00,
2013-02-22 02:33:00,27.9,17.8,-100.00,North,-999,-999.0,-999.0,62,-99.99,,,-99.99,WSDL version 420,2013-02-22 09:33:00,
2013-02-22 02:38:00,27.9,17.8,-100.00,North,-999,-999.0,-999.0,62,-99.99,,,-99.99,WSDL version 420,2013-02-22 09:38:00,
2013-02-22 02:43:00,27.9,17.8,-100.00,North,-999,-999.0,-999.0,62,-99.99,,,-99.99,WSDL version 420,2013-02-22 09:43:00,
2013-02-22 02:48:00,27.9,17.8,-100.00,North,-999,-999.0,-999.0,62,-99.99,,,-99.99,WSDL version 420,2013-02-22 09:48:00,
2013-02-22 02:53:00,27.9,17.8,-100.00,North,-999,-999.0,-999.0,62,-99.99,,,-99.99,WSDL version 420,2013-02-22 09:53:00,
2013-02-22 02:58:00,27.9,17.8,-100.00,North,-999,-999.0,-999.0,62,-99.99,,,-99.99,WSDL version 420,2013-02-22 09:58:00,
2013-02-22 03:13:00,27.9,17.8,-100.00,North,-999,-999.0,-999.0,62,-99.99,,,-99.99,WSDL version 420,2013-02-22 10:13:00,
2013-02-22 03:18:00,27.9,17.8,-100.00,North,-999,-999.0,-999.0,62,-99.99,,,-99.99,WSDL version 420,2013-02-22 10:18:00,
2013-02-22 03:23:00,28.0,18.0,-100.00,North,-999,-999.0,-999.0,62,-99.99,,,-99.99,WSDL version 420,2013-02-22 10:23:00,
2013-02-22 03:28:00,27.9,17.8,-100.00,North,-999,-999.0,-999.0,62,-99.99,,,-99.99,WSDL version 420,2013-02-22 10:28:00,
2013-02-22 03:33:00,27.9,17.8,-100.00,North,-999,-999.0,-999.0,62,-99.99,,,-99.99,WSDL version 420,2013-02-22 10:33:00,
2013-02-22 03:38:00,27.9,17.8,-100.00,North,-999,-999.0,-999.0,62,-99.99,,,-99.99,WSDL version 420,2013-02-22 10:38:00,
2013-02-22 03:43:00,27.9,17.8,-100.00,North,-999,-999.0,-999.0,62,-99.99,,,-99.99,WSDL version 420,2013-02-22 10:43:00,
2013-02-22 03:48:00,27.8,17.8,-100.00,North,-999,-999.0,-999.0,62,-99.99,,,-99.99,WSDL version 420,2013-02-22 10:48:00,
2013-02-22 03:53:00,27.7,17.6,-100.00,North,-999,-999.0,-999.0,62,-99.99,,,-99.99,WSDL version 420,2013-02-22 10:53:00,
2013-02-22 03:58:00,27.6,17.6,-100.00,North,-999,-999.0,-999.0,62,-99.99,,,-99.99,WSDL version 420,2013-02-22 10:58:00,
2013-02-22 04:03:00,27.5,17.5,-100.00,North,-999,-999.0,-999.0,62,-99.99,,,-99.99,WSDL version 420,2013-02-22 11:03:00,
2013-02-22 04:08:00,27.5,17.5,-100.00,North,-999,-999.0,-999.0,62,-99.99,,,-99.99,WSDL version 420,2013-02-22 11:08:00,
2013-02-22 04:13:00,27.5,17.4,-100.00,North,-999,-999.0,-999.0,62,-99.99,,,-99.99,WSDL version 420,2013-02-22 11:13:00,
2013-02-22 04:18:00,27.3,17.3,-100.00,North,-999,-999.0,-999.0,62,-99.99,,,-99.99,WSDL version 420,2013-02-22 11:18:00,
2013-02-22 04:23:00,27.3,17.3,-100.00,North,-999,-999.0,-999.0,62,-99.99,,,-99.99,WSDL version 420,2013-02-22 11:23:00,
2013-02-22 04:28:00,27.2,17.2,-100.00,North,-999,-999.0,-999.0,62,-99.99,,,-99.99,WSDL version 420,2013-02-22 11:28:00,
2013-02-22 04:33:00,27.1,17.1,-100.00,North,-999,-999.0,-999.0,62,-99.99,,,-99.99,WSDL version 420,2013-02-22 11:33:00,
2013-02-22 04:38:00,27.1,17.1,-100.00,North,-999,-999.0,-999.0,62,-99.99,,,-99.99,WSDL version 420,2013-02-22 11:38:00,
2013-02-22 04:43:00,27.0,17.0,-100.00,North,-999,-999.0,-999.0,62,-99.99,,,-99.99,WSDL version 420,2013-02-22 11:43:00,
2013-02-22 04:48:00,27.0,17.0,-100.00,North,-999,-999.0,-999.0,62,-99.99,,,-99.99,WSDL version 420,2013-02-22 11:48:00,
2013-02-22 04:53:00,27.0,16.9,-100.00,North,-999,-999.0,-999.0,62,-99.99,,,-99.99,WSDL version 420,2013-02-22 11:53:00,
2013-02-22 04:58:00,27.0,16.9,-100.00,North,-999,-999.0,-999.0,62,-99.99,,,-99.99,WSDL version 420,2013-02-22 11:58:00,
2013-02-22 05:03:00,27.0,16.9,-100.00,North,-999,-999.0,-999.0,62,-99.99,,,-99.99,WSDL version 420,2013-02-22 12:03:00,
2013-02-22 05:08:00,27.0,17.0,-100.00,North,-999,-999.0,-999.0,63,-99.99,,,-99.99,WSDL version 420,2013-02-22 12:08:00,
2013-02-22 05:13:00,27.0,17.0,-100.00,North,-999,-999.0,-999.0,63,-99.99,,,-99.99,WSDL version 420,2013-02-22 12:13:00,
2013-02-22 05:18:00,27.0,17.0,-100.00,North,-999,-999.0,-999.0,62,-99.99,,,-99.99,WSDL version 420,2013-02-22 12:18:00,
2013-02-22 05:23:00,26.9,16.9,-100.00,North,-999,-999.0,-999.0,62,-99.99,,,-99.99,WSDL version 420,2013-02-22 12:23:00,
2013-02-22 05:28:00,26.8,16.8,-100.00,North,-999,-999.0,-999.0,63,-99.99,,,-99.99,WSDL version 420,2013-02-22 12:28:00,
2013-02-22 05:33:00,26.8,17.1,-100.00,North,-999,-999.0,-999.0,63,-99.99,,,-99.99,WSDL version 420,2013-02-22 12:33:00,
2013-02-22 05:38:00,26.7,17.0,-100.00,North,-999,-999.0,-999.0,63,-99.99,,,-99.99,WSDL version 420,2013-02-22 12:38:00,
2013-02-22 05:43:00,26.5,16.8,-100.00,North,-999,-999.0,-999.0,63,-99.99,,,-99.99,WSDL version 420,2013-02-22 12:43:00,
2013-02-22 05:48:00,26.3,16.6,-100.00,North,-999,-999.0,-999.0,63,-99.99,,,-99.99,WSDL version 420,2013-02-22 12:48:00,
2013-02-22 05:53:00,26.2,16.5,-100.00,North,-999,-999.0,-999.0,63,-99.99,,,-99.99,WSDL version 420,2013-02-22 12:53:00,
2013-02-22 05:58:00,26.1,16.4,-100.00,North,-999,-999.0,-999.0,63,-99.99,,,-99.99,WSDL version 420,2013-02-22 12:58:00,
2013-02-22 06:03:00,26.0,16.4,-100.00,North,-999,-999.0,-999.0,63,-99.99,,,-99.99,WSDL version 420,2013-02-22 13:03:00,
2013-02-22 06:08:00,25.9,16.2,-100.00,North,-999,-999.0,-999.0,63,-99.99,,,-99.99,WSDL version 420,2013-02-22 13:08:00,
2013-02-22 06:13:00,25.7,16.1,-100.00,North,-999,-999.0,-999.0,63,-99.99,,,-99.99,WSDL version 420,2013-02-22 13:13:00,
2013-02-22 06:18:00,25.7,16.1,-100.00,North,-999,-999.0,-999.0,63,-99.99,,,-99.99,WSDL version 420,2013-02-22 13:18:00,
2013-02-22 06:23:00,25.6,15.9,-100.00,North,-999,-999.0,-999.0,63,-99.99,,,-99.99,WSDL version 420,2013-02-22 13:23:00,
2013-02-22 06:28:00,25.5,15.9,-100.00,North,-999,-999.0,-999.0,63,-99.99,,,-99.99,WSDL version 420,2013-02-22 13:28:00,
2013-02-22 06:33:00,25.5,15.8,-100.00,North,-999,-999.0,-999.0,63,-99.99,,,-99.99,WSDL version 420,2013-02-22 13:33:00,
2013-02-22 06:38:00,25.3,15.7,-100.00,North,-999,-999.0,-999.0,63,-99.99,,,-99.99,WSDL version 420,2013-02-22 13:38:00,
2013-02-22 06:43:00,25.3,15.7,-100.00,North,-999,-999.0,-999.0,63,-99.99,,,-99.99,WSDL version 420,2013-02-22 13:43:00,
2013-02-22 06:48:00,25.3,15.7,-100.00,North,-999,-999.0,-999.0,63,-99.99,,,-99.99,WSDL version 420,2013-02-22 13:48:00,
2013-02-22 06:53:00,25.3,15.7,-100.00,North,-999,-999.0,-999.0,63,-99.99,,,-99.99,WSDL version 420,2013-02-22 13:53:00,
2013-02-22 06:58:00,25.2,15.6,-100.00,North,-999,-999.0,-999.0,63,-99.99,,,-99.99,WSDL version 420,2013-02-22 13:58:00,
2013-02-22 07:03:00,25.2,15.5,-100.00,North,-999,-999.0,-999.0,63,-99.99,,,-99.99,WSDL version 420,2013-02-22 14:03:00,
2013-02-22 07:08:00,25.2,15.5,-100.00,North,-999,-999.0,-999.0,63,-99.99,,,-99.99,WSDL version 420,2013-02-22 14:08:00,
2013-02-22 07:13:00,25.2,15.6,-100.00,North,-999,-999.0,-999.0,63,-99.99,,,-99.99,WSDL version 420,2013-02-22 14:13:00,
2013-02-22 07:18:00,25.3,15.7,-100.00,North,-999,-999.0,-999.0,63,-99.99,,,-99.99,WSDL version 420,2013-02-22 14:18:00,
2013-02-22 07:23:00,25.3,15.7,-100.00,North,-999,-999.0,-999.0,63,-99.99,,,-99.99,WSDL version 420,2013-02-22 14:23:00,
2013-02-22 07:28:00,25.3,15.7,-100.00,North,-999,-999.0,-999.0,63,-99.99,,,-99.99,WSDL version 420,2013-02-22 14:28:00,
2013-02-22 07:33:00,25.5,15.9,-100.00,North,-999,-999.0,-999.0,63,-99.99,,,-99.99,WSDL version 420,2013-02-22 14:33:00,
2013-02-22 07:38:00,25.7,16.0,-100.00,North,-999,-999.0,-999.0,63,-99.99,,,-99.99,WSDL version 420,2013-02-22 14:38:00,
2013-02-22 07:43:00,25.8,16.1,-100.00,North,-999,-999.0,-999.0,63,-99.99,,,-99.99,WSDL version 420,2013-02-22 14:43:00,
2013-02-22 07:48:00,25.9,16.2,-100.00,North,-999,-999.0,-999.0,63,-99.99,,,-99.99,WSDL version 420,2013-02-22 14:48:00,
2013-02-22 07:53:00,25.9,16.2,-100.00,North,-999,-999.0,-999.0,63,-99.99,,,-99.99,WSDL version 420,2013-02-22 14:53:00,
2013-02-22 07:58:00,25.8,16.2,-100.00,North,-999,-999.0,-999.0,63,-99.99,,,-99.99,WSDL version 420,2013-02-22 14:58:00,
2013-02-22 08:03:00,25.9,16.2,-100.00,North,-999,-999.0,-999.0,63,-99.99,,,-99.99,WSDL version 420,2013-02-22 15:03:00,
2013-02-22 08:08:00,26.1,16.4,-100.00,North,-999,-999.0,-999.0,63,-99.99,,,-99.99,WSDL version 420,2013-02-22 15:08:00,
2013-02-22 08:13:00,26.2,16.5,-100.00,North,-999,-999.0,-999.0,63,-99.99,,,-99.99,WSDL version 420,2013-02-22 15:13:00,
2013-02-22 08:18:00,26.3,16.7,-100.00,North,-999,-999.0,-999.0,63,-99.99,,,-99.99,WSDL version 420,2013-02-22 15:18:00,
2013-02-22 08:23:00,26.4,16.7,-100.00,North,-999,-999.0,-999.0,63,-99.99,,,-99.99,WSDL version 420,2013-02-22 15:23:00,
2013-02-22 08:28:00,26.7,16.8,-100.00,North,-999,-999.0,-999.0,62,-99.99,,,-99.99,WSDL version 420,2013-02-22 15:28:00,
2013-02-22 08:33:00,27.1,17.3,-100.00,North,-999,-999.0,-999.0,63,-99.99,,,-99.99,WSDL version 420,2013-02-22 15:33:00,
2013-02-22 08:38:00,27.5,17.8,-100.00,North,-999,-999.0,-999.0,63,-99.99,,,-99.99,WSDL version 420,2013-02-22 15:38:00,
2013-02-22 08:43:00,27.7,17.8,-100.00,North,-999,-999.0,-999.0,62,-99.99,,,-99.99,WSDL version 420,2013-02-22 15:43:00,
2013-02-22 08:48:00,27.7,17.6,-100.00,North,-999,-999.0,-999.0,62,-99.99,,,-99.99,WSDL version 420,2013-02-22 15:48:00,
2013-02-22 08:53:00,27.7,17.7,-100.00,North,-999,-999.0,-999.0,63,-99.99,,,-99.99,WSDL version 420,2013-02-22 15:53:00,
2013-02-22 08:58:00,27.9,18.1,-100.00,North,-999,-999.0,-999.0,63,-99.99,,,-99.99,WSDL version 420,2013-02-22 15:58:00,
2013-02-22 09:13:00,28.5,18.5,-100.00,North,-999,-999.0,-999.0,62,-99.99,,,-99.99,WSDL version 420,2013-02-22 16:13:00,
2013-02-22 09:18:00,28.7,18.6,-100.00,North,-999,-999.0,-999.0,62,-99.99,,,-99.99,WSDL version 420,2013-02-22 16:18:00,
2013-02-22 09:23:00,29.3,19.2,-100.00,North,-999,-999.0,-999.0,62,-99.99,,,-99.99,WSDL version 420,2013-02-22 16:23:00,
2013-02-22 09:28:00,29.9,19.5,-100.00,North,-999,-999.0,-999.0,61,-99.99,,,-99.99,WSDL version 420,2013-02-22 16:28:00,
2013-02-22 09:33:00,30.5,19.8,-100.00,North,-999,-999.0,-999.0,60,-99.99,,,-99.99,WSDL version 420,2013-02-22 16:33:00,
2013-02-22 09:38:00,31.3,20.6,-100.00,North,-999,-999.0,-999.0,60,-99.99,,,-99.99,WSDL version 420,2013-02-22 16:38:00,
2013-02-22 09:43:00,32.2,20.4,-100.00,North,-999,-999.0,-999.0,60,-99.99,,,-99.99,WSDL version 420,2013-02-22 16:43:00,
2013-02-22 09:48:00,33.2,20.7,-100.00,North,-999,-999.0,-999.0,60,-99.99,,,-99.99,WSDL version 420,2013-02-22 16:48:00,
2013-02-22 09:53:00,34.4,21.6,-100.00,North,-999,-999.0,-999.0,59,-99.99,,,-99.99,WSDL version 420,2013-02-22 16:53:00,
2013-02-22 09:58:00,35.4,22.3,-100.00,North,-999,-999.0,-999.0,58,-99.99,,,-99.99,WSDL version 420,2013-02-22 16:58:00,
2013-02-22 10:03:00,36.6,23.0,-100.00,North,-999,-999.0,-999.0,57,-99.99,,,-99.99,WSDL version 420,2013-02-22 17:03:00,
2013-02-22 10:08:00,36.9,22.3,-100.00,North,-999,-999.0,-999.0,56,-99.99,,,-99.99,WSDL version 420,2013-02-22 17:08:00,
2013-02-22 10:13:00,38.1,23.7,-100.00,North,-999,-999.0,-999.0,55,-99.99,,,-99.99,WSDL version 420,2013-02-22 17:13:00,
2013-02-22 10:18:00,38.4,23.0,-100.00,North,-999,-999.0,-999.0,54,-99.99,,,-99.99,WSDL version 420,2013-02-22 17:18:00,
2013-02-22 10:23:00,39.2,23.6,-100.00,North,-999,-999.0,-999.0,52,-99.99,,,-99.99,WSDL version 420,2013-02-22 17:23:00,
2013-02-22 10:28:00,39.4,23.3,-100.00,North,-999,-999.0,-999.0,53,-99.99,,,-99.99,WSDL version 420,2013-02-22 17:28:00,
2013-02-22 10:33:00,40.6,24.8,-100.00,North,-999,-999.0,-999.0,53,-99.99,,,-99.99,WSDL version 420,2013-02-22 17:33:00,
2013-02-22 10:38:00,41.6,25.2,-100.00,North,-999,-999.0,-999.0,51,-99.99,,,-99.99,WSDL version 420,2013-02-22 17:38:00,
2013-02-22 10:43:00,41.4,24.1,-100.00,North,-999,-999.0,-999.0,49,-99.99,,,-99.99,WSDL version 420,2013-02-22 17:43:00,
2013-02-22 10:48:00,41.2,24.0,-100.00,North,-999,-999.0,-999.0,50,-99.99,,,-99.99,WSDL version 420,2013-02-22 17:48:00,
2013-02-22 10:53:00,42.5,25.4,-100.00,North,-999,-999.0,-999.0,50,-99.99,,,-99.99,WSDL version 420,2013-02-22 17:53:00,
2013-02-22 10:58:00,42.6,25.1,-100.00,North,-999,-999.0,-999.0,50,-99.99,,,-99.99,WSDL version 420,2013-02-22 17:58:00,
2013-02-22 11:03:00,43.3,25.4,-100.00,North,-999,-999.0,-999.0,49,-99.99,,,-99.99,WSDL version 420,2013-02-22 18:03:00,
2013-02-22 11:08:00,44.1,26.2,-100.00,North,-999,-999.0,-999.0,49,-99.99,,,-99.99,WSDL version 420,2013-02-22 18:08:00,
2013-02-22 11:13:00,44.3,26.3,-100.00,North,-999,-999.0,-999.0,48,-99.99,,,-99.99,WSDL version 420,2013-02-22 18:13:00,
2013-02-22 11:18:00,44.4,25.6,-100.00,North,-999,-999.0,-999.0,47,-99.99,,,-99.99,WSDL version 420,2013-02-22 18:18:00,
2013-02-22 11:23:00,43.9,24.8,-100.00,North,-999,-999.0,-999.0,46,-99.99,,,-99.99,WSDL version 420,2013-02-22 18:23:00,
2013-02-22 11:28:00,43.5,24.2,-100.00,North,-999,-999.0,-999.0,46,-99.99,,,-99.99,WSDL version 420,2013-02-22 18:28:00,
2013-02-22 11:33:00,43.8,25.2,-100.00,North,-999,-999.0,-999.0,48,-99.99,,,-99.99,WSDL version 420,2013-02-22 18:33:00,
2013-02-22 11:38:00,43.9,24.4,-100.00,North,-999,-999.0,-999.0,46,-99.99,,,-99.99,WSDL version 420,2013-02-22 18:38:00,
2013-02-22 11:43:00,43.4,23.7,-100.00,North,-999,-999.0,-999.0,46,-99.99,,,-99.99,WSDL version 420,2013-02-22 18:43:00,
2013-02-22 11:48:00,43.2,23.4,-100.00,North,-999,-999.0,-999.0,45,-99.99,,,-99.99,WSDL version 420,2013-02-22 18:48:00,
2013-02-22 11:53:00,43.4,23.6,-100.00,North,-999,-999.0,-999.0,45,-99.99,,,-99.99,WSDL version 420,2013-02-22 18:53:00,
2013-02-22 11:58:00,44.4,24.9,-100.00,North,-999,-999.0,-999.0,45,-99.99,,,-99.99,WSDL version 420,2013-02-22 18:58:00,
2013-02-22 12:03:00,44.7,24.6,-100.00,North,-999,-999.0,-999.0,45,-99.99,,,-99.99,WSDL version 420,2013-02-22 19:03:00,
2013-02-22 12:08:00,44.7,24.1,-100.00,North,-999,-999.0,-999.0,45,-99.99,,,-99.99,WSDL version 420,2013-02-22 19:08:00,
2013-02-22 12:13:00,44.7,23.7,-100.00,North,-999,-999.0,-999.0,43,-99.99,,,-99.99,WSDL version 420,2013-02-22 19:13:00,
2013-02-22 12:18:00,44.8,24.1,-100.00,North,-999,-999.0,-999.0,45,-99.99,,,-99.99,WSDL version 420,2013-02-22 19:18:00,
2013-02-22 12:23:00,44.8,23.8,-100.00,North,-999,-999.0,-999.0,43,-99.99,,,-99.99,WSDL version 420,2013-02-22 19:23:00,
2013-02-22 12:28:00,44.7,23.5,-100.00,North,-999,-999.0,-999.0,43,-99.99,,,-99.99,WSDL version 420,2013-02-22 19:28:00,
2013-02-22 12:33:00,44.7,23.1,-100.00,North,-999,-999.0,-999.0,42,-99.99,,,-99.99,WSDL version 420,2013-02-22 19:33:00,
2013-02-22 12:38:00,44.4,22.6,-100.00,North,-999,-999.0,-999.0,42,-99.99,,,-99.99,WSDL version 420,2013-02-22 19:38:00,
2013-02-22 12:43:00,44.1,22.4,-100.00,North,-999,-999.0,-999.0,42,-99.99,,,-99.99,WSDL version 420,2013-02-22 19:43:00,
2013-02-22 12:48:00,44.0,22.4,-100.00,North,-999,-999.0,-999.0,42,-99.99,,,-99.99,WSDL version 420,2013-02-22 19:48:00,
2013-02-22 12:53:00,44.3,23.0,-100.00,North,-999,-999.0,-999.0,42,-99.99,,,-99.99,WSDL version 420,2013-02-22 19:53:00,
2013-02-22 12:58:00,44.1,22.3,-100.00,North,-999,-999.0,-999.0,42,-99.99,,,-99.99,WSDL version 420,2013-02-22 19:58:00,
2013-02-22 13:03:00,43.5,21.7,-100.00,North,-999,-999.0,-999.0,41,-99.99,,,-99.99,WSDL version 420,2013-02-22 20:03:00,
2013-02-22 13:08:00,43.4,21.8,-100.00,North,-999,-999.0,-999.0,42,-99.99,,,-99.99,WSDL version 420,2013-02-22 20:08:00,
2013-02-22 13:13:00,43.4,21.3,-100.00,North,-999,-999.0,-999.0,41,-99.99,,,-99.99,WSDL version 420,2013-02-22 20:13:00,
2013-02-22 13:18:00,43.2,21.1,-100.00,North,-999,-999.0,-999.0,41,-99.99,,,-99.99,WSDL version 420,2013-02-22 20:18:00,
2013-02-22 13:23:00,42.9,21.3,-100.00,North,-999,-999.0,-999.0,42,-99.99,,,-99.99,WSDL version 420,2013-02-22 20:23:00,
2013-02-22 13:28:00,42.9,20.8,-100.00,North,-999,-999.0,-999.0,41,-99.99,,,-99.99,WSDL version 420,2013-02-22 20:28:00,
2013-02-22 13:33:00,43.1,21.1,-100.00,North,-999,-999.0,-999.0,41,-99.99,,,-99.99,WSDL version 420,2013-02-22 20:33:00,
2013-02-22 13:38:00,43.5,21.4,-100.00,North,-999,-999.0,-999.0,42,-99.99,,,-99.99,WSDL version 420,2013-02-22 20:38:00,
2013-02-22 13:43:00,43.2,20.7,-100.00,North,-999,-999.0,-999.0,40,-99.99,,,-99.99,WSDL version 420,2013-02-22 20:43:00,
2013-02-22 13:48:00,42.6,20.4,-100.00,North,-999,-999.0,-999.0,41,-99.99,,,-99.99,WSDL version 420,2013-02-22 20:48:00,
2013-02-22 13:53:00,42.6,20.4,-100.00,North,-999,-999.0,-999.0,41,-99.99,,,-99.99,WSDL version 420,2013-02-22 20:53:00,
2013-02-22 13:58:00,42.3,19.7,-100.00,North,-999,-999.0,-999.0,40,-99.99,,,-99.99,WSDL version 420,2013-02-22 20:58:00,
2013-02-22 14:03:00,42.2,19.7,-100.00,North,-999,-999.0,-999.0,40,-99.99,,,-99.99,WSDL version 420,2013-02-22 21:03:00,
2013-02-22 14:08:00,42.3,19.7,-100.00,North,-999,-999.0,-999.0,40,-99.99,,,-99.99,WSDL version 420,2013-02-22 21:08:00,
2013-02-22 14:13:00,42.3,20.1,-100.00,North,-999,-999.0,-999.0,41,-99.99,,,-99.99,WSDL version 420,2013-02-22 21:13:00,
2013-02-22 14:18:00,42.5,19.9,-100.00,North,-999,-999.0,-999.0,40,-99.99,,,-99.99,WSDL version 420,2013-02-22 21:18:00,
2013-02-22 14:23:00,42.4,19.9,-100.00,North,-999,-999.0,-999.0,40,-99.99,,,-99.99,WSDL version 420,2013-02-22 21:23:00,
2013-02-22 14:28:00,42.4,19.8,-100.00,North,-999,-999.0,-999.0,40,-99.99,,,-99.99,WSDL version 420,2013-02-22 21:28:00,
2013-02-22 14:33:00,42.4,19.8,-100.00,North,-999,-999.0,-999.0,40,-99.99,,,-99.99,WSDL version 420,2013-02-22 21:33:00,
2013-02-22 14:38:00,42.6,19.7,-100.00,North,-999,-999.0,-999.0,39,-99.99,,,-99.99,WSDL version 420,2013-02-22 21:38:00,
2013-02-22 14:43:00,42.7,19.8,-100.00,North,-999,-999.0,-999.0,39,-99.99,,,-99.99,WSDL version 420,2013-02-22 21:43:00,
2013-02-22 14:48:00,42.8,19.6,-100.00,North,-999,-999.0,-999.0,39,-99.99,,,-99.99,WSDL version 420,2013-02-22 21:48:00,
2013-02-22 14:53:00,42.9,19.6,-100.00,North,-999,-999.0,-999.0,39,-99.99,,,-99.99,WSDL version 420,2013-02-22 21:53:00,
2013-02-22 14:58:00,42.8,19.6,-100.00,North,-999,-999.0,-999.0,39,-99.99,,,-99.99,WSDL version 420,2013-02-22 21:58:00,
2013-02-22 15:13:00,42.7,19.5,-100.00,North,-999,-999.0,-999.0,39,-99.99,,,-99.99,WSDL version 420,2013-02-22 22:13:00,
2013-02-22 15:18:00,42.8,19.5,-100.00,North,-999,-999.0,-999.0,39,-99.99,,,-99.99,WSDL version 420,2013-02-22 22:18:00,
2013-02-22 15:23:00,42.8,19.6,-100.00,North,-999,-999.0,-999.0,39,-99.99,,,-99.99,WSDL version 420,2013-02-22 22:23:00,
2013-02-22 15:28:00,42.8,19.6,-100.00,North,-999,-999.0,-999.0,39,-99.99,,,-99.99,WSDL version 420,2013-02-22 22:28:00,
2013-02-22 15:33:00,42.8,19.6,-100.00,North,-999,-999.0,-999.0,39,-99.99,,,-99.99,WSDL version 420,2013-02-22 22:33:00,
2013-02-22 15:38:00,42.9,19.7,-100.00,North,-999,-999.0,-999.0,39,-99.99,,,-99.99,WSDL version 420,2013-02-22 22:38:00,
2013-02-22 15:43:00,43.0,19.7,-100.00,North,-999,-999.0,-999.0,39,-99.99,,,-99.99,WSDL version 420,2013-02-22 22:43:00,
2013-02-22 15:48:00,42.8,19.6,-100.00,North,-999,-999.0,-999.0,39,-99.99,,,-99.99,WSDL version 420,2013-02-22 22:48:00,
2013-02-22 15:53:00,42.4,19.5,-100.00,North,-999,-999.0,-999.0,39,-99.99,,,-99.99,WSDL version 420,2013-02-22 22:53:00,
2013-02-22 15:58:00,42.3,19.4,-100.00,North,-999,-999.0,-999.0,40,-99.99,,,-99.99,WSDL version 420,2013-02-22 22:58:00,
2013-02-22 16:03:00,42.1,19.2,-100.00,North,-999,-999.0,-999.0,39,-99.99,,,-99.99,WSDL version 420,2013-02-22 23:03:00,
2013-02-22 16:08:00,41.9,18.8,-100.00,North,-999,-999.0,-999.0,40,-99.99,,,-99.99,WSDL version 420,2013-02-22 23:08:00,
2013-02-22 16:13:00,41.6,18.5,-100.00,North,-999,-999.0,-999.0,39,-99.99,,,-99.99,WSDL version 420,2013-02-22 23:13:00,
2013-02-22 16:18:00,41.4,18.3,-100.00,North,-999,-999.0,-999.0,39,-99.99,,,-99.99,WSDL version 420,2013-02-22 23:18:00,
2013-02-22 16:23:00,41.0,18.0,-100.00,North,-999,-999.0,-999.0,40,-99.99,,,-99.99,WSDL version 420,2013-02-22 23:23:00,
2013-02-22 16:28:00,40.7,17.8,-100.00,North,-999,-999.0,-999.0,39,-99.99,,,-99.99,WSDL version 420,2013-02-22 23:28:00,
2013-02-22 16:33:00,40.5,18.0,-100.00,North,-999,-999.0,-999.0,40,-99.99,,,-99.99,WSDL version 420,2013-02-22 23:33:00,
2013-02-22 16:38:00,40.3,17.9,-100.00,North,-999,-999.0,-999.0,40,-99.99,,,-99.99,WSDL version 420,2013-02-22 23:38:00,
2013-02-22 16:43:00,40.1,17.8,-100.00,North,-999,-999.0,-999.0,40,-99.99,,,-99.99,WSDL version 420,2013-02-22 23:43:00,
2013-02-22 16:48:00,39.9,17.6,-100.00,North,-999,-999.0,-999.0,40,-99.99,,,-99.99,WSDL version 420,2013-02-22 23:48:00,
2013-02-22 16:53:00,39.8,17.4,-100.00,North,-999,-999.0,-999.0,40,-99.99,,,-99.99,WSDL version 420,2013-02-22 23:53:00,
2013-02-22 16:58:00,39.7,17.3,-100.00,North,-999,-999.0,-999.0,40,-99.99,,,-99.99,WSDL version 420,2013-02-22 23:58:00,
2013-02-22 17:03:00,39.5,17.2,-100.00,North,-999,-999.0,-999.0,40,-99.99,,,-99.99,WSDL version 420,2013-02-23 00:03:00,
2013-02-22 17:08:00,39.3,17.0,-100.00,North,-999,-999.0,-999.0,40,-99.99,,,-99.99,WSDL version 420,2013-02-23 00:08:00,
2013-02-22 17:13:00,39.1,17.1,-100.00,North,-999,-999.0,-999.0,41,-99.99,,,-99.99,WSDL version 420,2013-02-23 00:13:00,
2013-02-22 17:18:00,38.9,17.2,-100.00,North,-999,-999.0,-999.0,41,-99.99,,,-99.99,WSDL version 420,2013-02-23 00:18:00,
2013-02-22 17:23:00,38.7,17.0,-100.00,North,-999,-999.0,-999.0,41,-99.99,,,-99.99,WSDL version 420,2013-02-23 00:23:00,
2013-02-22 17:28:00,38.5,16.8,-100.00,North,-999,-999.0,-999.0,41,-99.99,,,-99.99,WSDL version 420,2013-02-23 00:28:00,
2013-02-22 17:33:00,38.2,16.5,-100.00,North,-999,-999.0,-999.0,41,-99.99,,,-99.99,WSDL version 420,2013-02-23 00:33:00,
2013-02-22 17:38:00,37.9,16.3,-100.00,North,-999,-999.0,-999.0,41,-99.99,,,-99.99,WSDL version 420,2013-02-23 00:38:00,
2013-02-22 17:43:00,37.6,16.0,-100.00,North,-999,-999.0,-999.0,41,-99.99,,,-99.99,WSDL version 420,2013-02-23 00:43:00,
2013-02-22 17:48:00,37.3,16.0,-100.00,North,-999,-999.0,-999.0,42,-99.99,,,-99.99,WSDL version 420,2013-02-23 00:48:00,
2013-02-22 17:53:00,37.0,16.1,-100.00,North,-999,-999.0,-999.0,42,-99.99,,,-99.99,WSDL version 420,2013-02-23 00:53:00,
2013-02-22 17:58:00,36.8,15.8,-100.00,North,-999,-999.0,-999.0,42,-99.99,,,-99.99,WSDL version 420,2013-02-23 00:58:00,
2013-02-22 18:04:00,36.5,15.6,-100.00,North,-999,-999.0,-999.0,42,-99.99,,,-99.99,WSDL version 420,2013-02-23 01:04:00,
2013-02-22 18:09:00,36.3,15.9,-100.00,North,-999,-999.0,-999.0,43,-99.99,,,-99.99,WSDL version 420,2013-02-23 01:09:00,
2013-02-22 18:14:00,36.1,16.2,-100.00,North,-999,-999.0,-999.0,44,-99.99,,,-99.99,WSDL version 420,2013-02-23 01:14:00,
2013-02-22 18:19:00,36.0,16.4,-100.00,North,-999,-999.0,-999.0,45,-99.99,,,-99.99,WSDL version 420,2013-02-23 01:19:00,
2013-02-22 18:24:00,35.8,16.6,-100.00,North,-999,-999.0,-999.0,45,-99.99,,,-99.99,WSDL version 420,2013-02-23 01:24:00,
2013-02-22 18:29:00,35.7,16.4,-100.00,North,-999,-999.0,-999.0,45,-99.99,,,-99.99,WSDL version 420,2013-02-23 01:29:00,
2013-02-22 18:34:00,35.4,16.2,-100.00,North,-999,-999.0,-999.0,45,-99.99,,,-99.99,WSDL version 420,2013-02-23 01:34:00,
2013-02-22 18:39:00,35.3,16.1,-100.00,North,-999,-999.0,-999.0,45,-99.99,,,-99.99,WSDL version 420,2013-02-23 01:39:00,
2013-02-22 18:44:00,35.0,15.8,-100.00,North,-999,-999.0,-999.0,45,-99.99,,,-99.99,WSDL version 420,2013-02-23 01:44:00,
2013-02-22 18:49:00,34.8,15.6,-100.00,North,-999,-999.0,-999.0,45,-99.99,,,-99.99,WSDL version 420,2013-02-23 01:49:00,
2013-02-22 18:54:00,34.5,15.4,-100.00,North,-999,-999.0,-999.0,45,-99.99,,,-99.99,WSDL version 420,2013-02-23 01:54:00,
2013-02-22 18:59:00,34.3,15.1,-100.00,North,-999,-999.0,-999.0,45,-99.99,,,-99.99,WSDL version 420,2013-02-23 01:59:00,
2013-02-22 19:04:00,34.1,14.9,-100.00,North,-999,-999.0,-999.0,45,-99.99,,,-99.99,WSDL version 420,2013-02-23 02:04:00,
2013-02-22 19:09:00,33.8,14.7,-100.00,North,-999,-999.0,-999.0,45,-99.99,,,-99.99,WSDL version 420,2013-02-23 02:09:00,
2013-02-22 19:14:00,33.7,14.6,-100.00,North,-999,-999.0,-999.0,45,-99.99,,,-99.99,WSDL version 420,2013-02-23 02:14:00,
2013-02-22 19:19:00,33.6,14.5,-100.00,North,-999,-999.0,-999.0,45,-99.99,,,-99.99,WSDL version 420,2013-02-23 02:19:00,
2013-02-22 19:24:00,33.4,14.4,-100.00,North,-999,-999.0,-999.0,45,-99.99,,,-99.99,WSDL version 420,2013-02-23 02:24:00,
2013-02-22 19:29:00,33.3,14.2,-100.00,North,-999,-999.0,-999.0,45,-99.99,,,-99.99,WSDL version 420,2013-02-23 02:29:00,
2013-02-22 19:34:00,33.3,14.4,-100.00,North,-999,-999.0,-999.0,46,-99.99,,,-99.99,WSDL version 420,2013-02-23 02:34:00,
2013-02-22 19:39:00,33.1,14.6,-100.00,North,-999,-999.0,-999.0,46,-99.99,,,-99.99,WSDL version 420,2013-02-23 02:39:00,
2013-02-22 19:44:00,33.1,14.6,-100.00,North,-999,-999.0,-999.0,46,-99.99,,,-99.99,WSDL version 420,2013-02-23 02:44:00,
2013-02-22 19:49:00,33.0,14.5,-100.00,North,-999,-999.0,-999.0,46,-99.99,,,-99.99,WSDL version 420,2013-02-23 02:49:00,
2013-02-22 19:54:00,32.9,14.4,-100.00,North,-999,-999.0,-999.0,46,-99.99,,,-99.99,WSDL version 420,2013-02-23 02:54:00,
2013-02-22 19:59:00,32.8,14.3,-100.00,North,-999,-999.0,-999.0,46,-99.99,,,-99.99,WSDL version 420,2013-02-23 02:59:00,
2013-02-22 20:04:00,32.7,14.2,-100.00,North,-999,-999.0,-999.0,46,-99.99,,,-99.99,WSDL version 420,2013-02-23 03:04:00,
2013-02-22 20:09:00,32.6,14.1,-100.00,North,-999,-999.0,-999.0,46,-99.99,,,-99.99,WSDL version 420,2013-02-23 03:09:00,
2013-02-22 20:14:00,32.5,14.1,-100.00,North,-999,-999.0,-999.0,46,-99.99,,,-99.99,WSDL version 420,2013-02-23 03:14:00,
2013-02-22 20:19:00,32.5,14.2,-100.00,North,-999,-999.0,-999.0,47,-99.99,,,-99.99,WSDL version 420,2013-02-23 03:19:00,
2013-02-22 20:25:00,32.5,14.1,-100.00,North,-999,-999.0,-999.0,46,-99.99,,,-99.99,WSDL version 420,2013-02-23 03:25:00,
2013-02-22 20:30:00,32.4,14.0,-100.00,North,-999,-999.0,-999.0,46,-99.99,,,-99.99,WSDL version 420,2013-02-23 03:30:00,
2013-02-22 20:35:00,32.4,14.1,-100.00,North,-999,-999.0,-999.0,46,-99.99,,,-99.99,WSDL version 420,2013-02-23 03:35:00,
2013-02-22 20:40:00,32.4,14.4,-100.00,North,-999,-999.0,-999.0,47,-99.99,,,-99.99,WSDL version 420,2013-02-23 03:40:00,
2013-02-22 20:45:00,32.4,14.4,-100.00,North,-999,-999.0,-999.0,47,-99.99,,,-99.99,WSDL version 420,2013-02-23 03:45:00,
2013-02-22 20:50:00,32.3,14.2,-100.00,North,-999,-999.0,-999.0,46,-99.99,,,-99.99,WSDL version 420,2013-02-23 03:50:00,
2013-02-22 20:56:00,32.2,14.0,-100.00,North,-999,-999.0,-999.0,47,-99.99,,,-99.99,WSDL version 420,2013-02-23 03:56:00,
2013-02-22 21:01:00,32.2,14.2,-100.00,North,-999,-999.0,-999.0,47,-99.99,,,-99.99,WSDL version 420,2013-02-23 04:01:00,
2013-02-22 21:13:00,32.0,16.0,-100.00,North,-999,-999.0,-999.0,47,-99.99,,,-99.99,WSDL version 420,2013-02-23 04:13:00,
2013-02-22 21:18:00,31.9,15.9,-100.00,North,-999,-999.0,-999.0,47,-99.99,,,-99.99,WSDL version 420,2013-02-23 04:18:00,
2013-02-22 21:23:00,31.8,15.9,-100.00,North,-999,-999.0,-999.0,47,-99.99,,,-99.99,WSDL version 420,2013-02-23 04:23:00,
2013-02-22 21:28:00,31.8,15.9,-100.00,North,-999,-999.0,-999.0,47,-99.99,,,-99.99,WSDL version 420,2013-02-23 04:28:00,
2013-02-22 21:33:00,31.9,15.9,-100.00,North,-999,-999.0,-999.0,47,-99.99,,,-99.99,WSDL version 420,2013-02-23 04:33:00,
2013-02-22 21:38:00,32.0,16.0,-100.00,North,-999,-999.0,-999.0,47,-99.99,,,-99.99,WSDL version 420,2013-02-23 04:38:00,
2013-02-22 21:43:00,32.1,14.7,-100.00,North,-999,-999.0,-999.0,47,-99.99,,,-99.99,WSDL version 420,2013-02-23 04:43:00,
2013-02-22 21:48:00,32.2,14.3,-100.00,North,-999,-999.0,-999.0,47,-99.99,,,-99.99,WSDL version 420,2013-02-23 04:48:00,
2013-02-22 21:53:00,32.4,14.4,-100.00,North,-999,-999.0,-999.0,47,-99.99,,,-99.99,WSDL version 420,2013-02-23 04:53:00,
2013-02-22 21:58:00,32.5,14.5,-100.00,North,-999,-999.0,-999.0,47,-99.99,,,-99.99,WSDL version 420,2013-02-23 04:58:00,
2013-02-22 22:00:00,32.5,14.5,-100.00,North,-999,-999.0,-999.0,47,-99.99,,,-99.99,WSDL version 420,2013-02-23 05:00:00,
2013-02-22 22:01:00,32.5,14.5,-100.00,North,-999,-999.0,-999.0,47,-99.99,,,-99.99,WSDL version 420,2013-02-23 05:01:00,
2013-02-22 22:06:00,32.5,14.5,-100.00,North,-999,-999.0,-999.0,47,-99.99,,,-99.99,WSDL version 420,2013-02-23 05:06:00,
2013-02-22 22:11:00,32.5,14.5,-100.00,North,-999,-999.0,-999.0,47,-99.99,,,-99.99,WSDL version 420,2013-02-23 05:11:00,
2013-02-22 22:16:00,32.7,14.7,-100.00,North,-999,-999.0,-999.0,47,-99.99,,,-99.99,WSDL version 420,2013-02-23 05:16:00,
2013-02-22 22:21:00,32.9,14.9,-100.00,North,-999,-999.0,-999.0,47,-99.99,,,-99.99,WSDL version 420,2013-02-23 05:21:00,
2013-02-22 22:26:00,32.9,14.9,-100.00,North,-999,-999.0,-999.0,47,-99.99,,,-99.99,WSDL version 420,2013-02-23 05:26:00,
2013-02-22 22:31:00,32.9,14.9,-100.00,North,-999,-999.0,-999.0,47,-99.99,,,-99.99,WSDL version 420,2013-02-23 05:31:00,
2013-02-22 22:33:00,32.9,14.9,-100.00,North,-999,-999.0,-999.0,47,-99.99,,,-99.99,WSDL version 420,2013-02-23 05:33:00,
2013-02-22 22:38:00,33.1,15.0,-100.00,North,-999,-999.0,-999.0,47,-99.99,,,-99.99,WSDL version 420,2013-02-23 05:38:00,
2013-02-22 22:41:00,33.1,15.0,-100.00,North,-999,-999.0,-999.0,47,-99.99,,,-99.99,WSDL version 420,2013-02-23 05:41:00,
2013-02-22 22:46:00,33.1,15.3,-100.00,North,-999,-999.0,-999.0,47,-99.99,,,-99.99,WSDL version 420,2013-02-23 05:46:00,
2013-02-22 22:51:00,33.1,15.2,-100.00,North,-999,-999.0,-999.0,48,-99.99,,,-99.99,WSDL version 420,2013-02-23 05:51:00,
2013-02-22 22:56:00,32.9,15.1,-100.00,North,-999,-999.0,-999.0,48,-99.99,,,-99.99,WSDL version 420,2013-02-23 05:56:00,
2013-02-22 23:01:00,32.9,15.3,-100.00,North,-999,-999.0,-999.0,48,-99.99,,,-99.99,WSDL version 420,2013-02-23 06:01:00,
2013-02-22 23:06:00,32.8,15.0,-100.00,North,-999,-999.0,-999.0,48,-99.99,,,-99.99,WSDL version 420,2013-02-23 06:06:00,
2013-02-22 23:11:00,32.7,15.1,-100.00,North,-999,-999.0,-999.0,47,-99.99,,,-99.99,WSDL version 420,2013-02-23 06:11:00,
2013-02-22 23:17:00,32.7,15.1,-100.00,North,-999,-999.0,-999.0,48,-99.99,,,-99.99,WSDL version 420,2013-02-23 06:17:00,
2013-02-22 23:22:00,32.5,14.7,-100.00,North,-999,-999.0,-999.0,47,-99.99,,,-99.99,WSDL version 420,2013-02-23 06:22:00,
2013-02-22 23:27:00,32.5,14.5,-100.00,North,-999,-999.0,-999.0,47,-99.99,,,-99.99,WSDL version 420,2013-02-23 06:27:00,
2013-02-22 23:32:00,32.3,14.3,-100.00,North,-999,-999.0,-999.0,47,-99.99,,,-99.99,WSDL version 420,2013-02-23 06:32:00,
2013-02-22 23:37:00,32.2,14.2,-100.00,North,-999,-999.0,-999.0,47,-99.99,,,-99.99,WSDL version 420,2013-02-23 06:37:00,
2013-02-22 23:42:00,32.2,14.2,-100.00,North,-999,-999.0,-999.0,47,-99.99,,,-99.99,WSDL version 420,2013-02-23 06:42:00,
2013-02-22 23:47:00,32.2,14.2,-100.00,North,-999,-999.0,-999.0,47,-99.99,,,-99.99,WSDL version 420,2013-02-23 06:47:00,
2013-02-22 23:52:00,32.2,14.2,-100.00,North,-999,-999.0,-999.0,47,-99.99,,,-99.99,WSDL version 420,2013-02-23 06:52:00,
2013-02-22 23:57:00,32.2,14.2,-100.00,North,-999,-999.0,-999.0,47,-99.99,,,-99.99,WSDL version 420,2013-02-23 06:57:00,